Time;durP1;ratioP1;P1;durP2;ratioP2;P2;SDS_P1;SDS_P2;PMS_P1;PMS_P2;Temp;Humidity;BMP_temperature;BMP_pressure;BME280_temperature;BME280_humidity;BME280_pressure;Samples;Min_cycle;Max_cycle;Signal;HPM_P1;HPM_P2
2023/03/03 00:03:56;;;;;;;60.70;21.90;;;;;;;1.28;100.00;102562.16;10340062;28;20038;-69
2023/03/03 00:08:57;;;;;;;56.00;23.55;;;;;;;1.20;100.00;102543.97;10340682;28;20062;-69
2023/03/03 00:13:57;;;;;;;73.55;24.23;;;;;;;1.31;100.00;102554.59;10357728;28;20033;-69
2023/03/03 00:18:58;;;;;;;59.85;23.20;;;;;;;1.25;100.00;102538.06;10341364;28;20046;-69
2023/03/03 00:24:18;;;;;;;64.45;26.48;;;;;;;1.36;100.00;102545.97;10417485;28;20044;-68
2023/03/03 00:29:25;;;;;;;62.00;23.33;;;;;;;1.42;100.00;102550.81;10405326;28;20121;-69
2023/03/03 00:34:26;;;;;;;67.70;25.48;;;;;;;1.44;100.00;102554.22;10454210;28;20040;-69
2023/03/03 00:39:34;;;;;;;69.05;25.67;;;;;;;1.45;100.00;102550.50;10454747;28;20048;-69
2023/03/03 00:44:57;;;;;;;60.38;24.10;;;;;;;1.49;100.00;102551.03;10411735;28;20044;-68
2023/03/03 00:50:06;;;;;;;51.42;22.67;;;;;;;1.50;100.00;102548.19;10411141;28;20045;-68
2023/03/03 00:55:07;;;;;;;56.42;22.15;;;;;;;1.44;100.00;102543.38;10411900;28;20041;-69
2023/03/03 01:00:08;;;;;;;52.25;21.08;;;;;;;1.44;100.00;102531.66;10362673;28;20052;-68
2023/03/03 01:05:15;;;;;;;49.97;19.60;;;;;;;1.48;100.00;102549.34;10412445;28;20076;-69
2023/03/03 01:10:15;;;;;;;49.90;19.02;;;;;;;1.51;100.00;102549.91;10380139;28;20077;-69
2023/03/03 01:15:16;;;;;;;46.75;18.05;;;;;;;1.52;100.00;102543.44;10395437;28;20057;-69
2023/03/03 01:20:17;;;;;;;47.92;19.30;;;;;;;1.55;100.00;102535.00;10400111;28;20033;-69
2023/03/03 01:25:17;;;;;;;59.53;18.40;;;;;;;1.59;100.00;102546.41;10436003;28;20033;-68
2023/03/03 01:30:17;;;;;;;51.15;18.35;;;;;;;1.58;100.00;102534.69;10452131;28;20559;-68
2023/03/03 01:35:18;;;;;;;34.33;16.38;;;;;;;1.46;100.00;102514.22;10418636;28;20529;-69
2023/03/03 01:40:21;;;;;;;46.63;17.42;;;;;;;1.53;100.00;102528.88;10403055;28;20037;-69
2023/03/03 01:45:26;;;;;;;40.13;15.30;;;;;;;1.55;100.00;102539.56;10389034;28;20042;-69
2023/03/03 01:50:31;;;;;;;47.20;16.93;;;;;;;1.49;100.00;102522.06;10394002;28;20041;-69
2023/03/03 01:55:36;;;;;;;49.70;17.13;;;;;;;1.36;100.00;102508.00;10392216;28;20312;-69
2023/03/03 02:00:37;;;;;;;53.20;16.23;;;;;;;1.40;100.00;102509.41;10392575;28;20409;-69
2023/03/03 02:05:38;;;;;;;45.75;16.27;;;;;;;1.48;100.00;102524.91;10377707;28;20060;-69
2023/03/03 02:10:38;;;;;;;73.32;18.73;;;;;;;1.40;100.00;102509.41;10377688;28;20044;-69
2023/03/03 02:15:39;;;;;;;95.35;20.30;;;;;;;1.45;100.00;102534.22;10391639;28;20041;-69
2023/03/03 02:20:48;;;;;;;58.67;18.33;;;;;;;1.41;100.00;102528.25;10409301;28;20088;-69
2023/03/03 02:25:54;;;;;;;57.75;19.83;;;;;;;1.40;100.00;102520.25;10409693;28;20051;-69
2023/03/03 02:30:56;;;;;;;128.52;20.15;;;;;;;1.41;100.00;102521.97;10393112;28;20086;-69
2023/03/03 02:35:56;;;;;;;48.25;17.42;;;;;;;1.05;100.00;102469.50;10372331;28;20038;-69
2023/03/03 02:41:08;;;;;;;76.55;15.70;;;;;;;1.37;100.00;102531.44;10370008;28;20034;-69
2023/03/03 02:46:08;;;;;;;56.30;14.30;;;;;;;1.31;100.00;102522.03;10352189;28;20052;-67
2023/03/03 02:51:08;;;;;;;46.95;14.82;;;;;;;1.33;100.00;102530.03;10375806;28;20065;-68
2023/03/03 02:56:09;;;;;;;56.22;14.68;;;;;;;1.14;100.00;102518.28;10348473;28;20666;-69
2023/03/03 03:01:10;;;;;;;229.93;23.02;;;;;;;1.13;100.00;102535.53;10358511;28;20058;-69
2023/03/03 03:06:10;;;;;;;66.15;12.60;;;;;;;0.93;100.00;102506.81;10376196;28;20114;-69
2023/03/03 03:11:11;;;;;;;44.10;11.95;;;;;;;1.05;100.00;102527.31;10359729;28;20045;-69
2023/03/03 03:16:11;;;;;;;68.03;13.57;;;;;;;0.99;100.00;102528.78;10372701;28;20042;-68
2023/03/03 03:21:12;;;;;;;133.48;16.02;;;;;;;0.91;100.00;102531.41;10398084;28;20084;-68
2023/03/03 03:26:12;;;;;;;81.88;15.68;;;;;;;0.80;100.00;102518.00;10383166;28;20774;-69
2023/03/03 03:31:13;;;;;;;49.80;15.45;;;;;;;0.92;100.00;102538.50;10359242;28;20045;-69
2023/03/03 03:36:13;;;;;;;57.80;16.58;;;;;;;0.90;100.00;102524.25;10359121;28;20042;-67
2023/03/03 03:41:14;;;;;;;106.93;19.38;;;;;;;1.02;100.00;102543.06;10373818;28;20064;-70
2023/03/03 03:46:15;;;;;;;69.28;16.90;;;;;;;0.93;100.00;102523.09;10325163;28;20041;-69
2023/03/03 03:51:15;;;;;;;112.85;20.63;;;;;;;0.86;100.00;102495.72;10375616;28;20057;-69
2023/03/03 03:56:16;;;;;;;209.55;23.23;;;;;;;0.59;100.00;102462.19;10331932;28;20608;-69
2023/03/03 04:01:16;;;;;;;77.35;18.85;;;;;;;0.77;100.00;102512.91;10333259;28;20038;-69
2023/03/03 04:06:17;;;;;;;174.55;22.63;;;;;;;0.69;100.00;102518.22;10333904;28;20489;-70
2023/03/03 04:11:17;;;;;;;96.85;18.88;;;;;;;0.62;100.00;102520.69;10301480;28;20064;-68
2023/03/03 04:16:18;;;;;;;83.68;18.40;;;;;;;0.52;100.00;102515.28;10335630;28;20045;-69
2023/03/03 04:21:19;;;;;;;87.22;19.10;;;;;;;0.43;100.00;102508.03;10339202;28;20068;-70
2023/03/03 04:26:19;;;;;;;79.93;18.63;;;;;;;0.46;100.00;102513.16;10371688;28;20045;-69
2023/03/03 04:31:20;;;;;;;83.10;18.73;;;;;;;0.50;100.00;102520.00;10356572;28;20273;-70
2023/03/03 04:36:20;;;;;;;97.60;21.30;;;;;;;0.50;100.00;102522.69;10372856;28;20061;-69
2023/03/03 04:41:21;;;;;;;94.03;17.65;;;;;;;0.38;100.00;102513.03;10340036;28;20089;-69
2023/03/03 04:46:21;;;;;;;74.00;14.48;;;;;;;0.37;100.00;102527.56;10355583;28;20409;-69
2023/03/03 04:51:22;;;;;;;66.03;13.95;;;;;;;0.29;100.00;102533.75;10371531;28;20080;-70
2023/03/03 04:56:22;;;;;;;54.38;14.20;;;;;;;0.24;100.00;102529.75;10338661;28;20042;-70
2023/03/03 05:01:23;;;;;;;90.68;15.43;;;;;;;0.20;100.00;102527.31;10408982;28;20037;-69
2023/03/03 05:06:23;;;;;;;116.72;14.88;;;;;;;0.12;100.00;102521.78;10412088;28;20042;-69
2023/03/03 05:11:24;;;;;;;91.88;13.48;;;;;;;-0.02;100.00;102506.00;10411339;28;20033;-69
2023/03/03 05:16:24;;;;;;;167.73;14.48;;;;;;;-0.24;100.00;102497.16;10378209;28;20059;-69
2023/03/03 05:21:25;;;;;;;80.05;11.55;;;;;;;-0.29;100.00;102510.28;10363191;28;20068;-69
2023/03/03 05:26:25;;;;;;;121.57;13.32;;;;;;;-0.41;100.00;102506.00;10353126;28;20073;-70
2023/03/03 05:31:26;;;;;;;113.78;13.65;;;;;;;-0.39;100.00;102519.38;10353335;28;20451;-70
2023/03/03 05:36:26;;;;;;;111.80;14.60;;;;;;;-0.47;100.00;102503.88;10353378;28;20044;-69
2023/03/03 05:41:27;;;;;;;156.10;15.07;;;;;;;-0.55;100.00;102514.53;10370384;28;20076;-68
2023/03/03 05:46:27;;;;;;;81.90;13.93;;;;;;;-0.64;100.00;102516.22;10359197;28;20064;-69
2023/03/03 05:51:28;;;;;;;182.68;16.40;;;;;;;-0.75;100.00;102511.78;10376572;28;20416;-69
2023/03/03 05:56:28;;;;;;;93.10;12.52;;;;;;;-0.88;100.00;102512.06;10377494;28;20060;-69
2023/03/03 06:01:29;;;;;;;174.20;16.65;;;;;;;-0.83;100.00;102514.34;10392972;28;20522;-69
2023/03/03 06:06:29;;;;;;;152.80;15.63;;;;;;;-0.83;100.00;102517.94;10409940;28;20076;-69
2023/03/03 06:11:30;;;;;;;137.30;15.27;;;;;;;-0.86;100.00;102528.16;10361174;28;20056;-70
2023/03/03 06:16:30;;;;;;;164.10;15.13;;;;;;;-0.89;100.00;102531.13;10376306;28;20037;-69
2023/03/03 06:21:31;;;;;;;152.15;14.43;;;;;;;-0.95;100.00;102524.44;10391505;28;20041;-70
2023/03/03 06:26:31;;;;;;;130.88;15.27;;;;;;;-0.92;100.00;102544.94;10393378;28;20041;-69
2023/03/03 06:31:32;;;;;;;46.58;10.90;;;;;;;-0.98;100.00;102534.66;10389198;28;20045;-70
2023/03/03 06:36:33;;;;;;;95.88;11.90;;;;;;;-0.91;100.00;102552.03;10352406;28;20034;-69
2023/03/03 06:41:33;;;;;;;200.43;16.17;;;;;;;-0.90;100.00;102553.75;10352239;28;20042;-69
2023/03/03 06:46:34;;;;;;;253.57;22.97;;;;;;;-0.93;100.00;102564.84;10333113;28;20356;-69
2023/03/03 06:51:38;;;;;;;60.38;11.98;;;;;;;-0.93;100.00;102570.25;10360563;28;20045;-70
2023/03/03 06:56:39;;;;;;;86.68;14.10;;;;;;;-0.85;100.00;102586.63;10349525;28;20050;-69
2023/03/03 07:01:40;;;;;;;115.25;16.67;;;;;;;-0.85;100.00;102573.13;10368272;28;20598;-69
2023/03/03 07:06:41;;;;;;;209.35;17.67;;;;;;;-0.75;100.00;102592.94;10369646;28;20034;-69
2023/03/03 07:11:42;;;;;;;118.95;14.25;;;;;;;-0.82;100.00;102575.56;10351173;28;20141;-70
2023/03/03 07:16:42;;;;;;;142.23;16.40;;;;;;;-0.80;100.00;102575.44;10334719;28;20099;-69
2023/03/03 07:21:43;;;;;;;89.45;13.35;;;;;;;-0.88;100.00;102568.84;10351144;28;20564;-69
2023/03/03 07:26:43;;;;;;;140.02;15.93;;;;;;;-0.70;100.00;102593.38;10366704;28;20045;-70
2023/03/03 07:31:47;;;;;;;51.88;10.85;;;;;;;-0.67;100.00;102582.28;10351149;28;20062;-69
2023/03/03 07:36:49;;;;;;;133.02;14.63;;;;;;;-0.54;100.00;102592.00;10341369;28;20048;-68
2023/03/03 07:41:50;;;;;;;151.68;15.20;;;;;;;-0.46;100.00;102605.69;10358464;28;20026;-69
2023/03/03 07:46:51;;;;;;;98.90;12.82;;;;;;;-0.54;100.00;102584.72;10356965;28;20049;-70
2023/03/03 07:51:53;;;;;;;85.28;12.90;;;;;;;-0.38;100.00;102591.47;10374007;28;20049;-70
2023/03/03 07:57:20;;;;;;;139.73;14.80;;;;;;;-0.21;100.00;102613.28;10316044;28;20039;-69
2023/03/03 08:02:20;;;;;;;;;;;;;;;0.24;100.00;102609.16;10337636;28;20122;-70
2023/03/03 08:07:21;;;;;;;104.20;14.26;;;;;;;0.50;100.00;102605.88;10333635;28;20078;-70
2023/03/03 08:12:51;;;;;;;149.63;14.40;;;;;;;0.68;100.00;102614.09;10316227;28;20394;-70
2023/03/03 08:17:53;;;;;;;87.65;12.10;;;;;;;0.60;100.00;102599.41;10334311;28;20485;-70
2023/03/03 08:22:53;;;;;;;39.97;9.50;;;;;;;0.81;100.00;102606.50;10356717;28;20053;-70
2023/03/03 08:27:54;;;;;;;78.45;12.57;;;;;;;0.73;100.00;102604.50;10318250;28;20049;-70
2023/03/03 08:32:54;;;;;;;33.33;10.63;;;;;;;0.78;100.00;102591.34;10352018;28;20051;-70
2023/03/03 08:37:55;;;;;;;43.85;10.98;;;;;;;1.04;100.00;102596.13;10333617;28;20037;-71
2023/03/03 08:42:57;;;;;;;31.25;11.32;;;;;;;1.10;100.00;102578.41;10355642;28;20053;-69
2023/03/03 08:47:58;;;;;;;35.50;10.55;;;;;;;1.34;100.00;102603.13;10396916;28;20049;-71
2023/03/03 08:52:59;;;;;;;21.17;10.77;;;;;;;1.39;100.00;102603.53;10394857;28;20045;-70
2023/03/03 08:57:59;;;;;;;22.23;10.07;;;;;;;1.45;100.00;102587.63;10395142;28;20053;-66
2023/03/03 09:03:00;;;;;;;31.38;9.57;;;;;;;1.55;100.00;102599.28;10387020;28;20041;-70
2023/03/03 09:08:00;;;;;;;37.38;11.23;;;;;;;1.72;100.00;102595.75;10354222;28;20038;-69
2023/03/03 09:13:12;;;;;;;22.55;9.25;;;;;;;1.99;100.00;102607.56;10370489;28;20056;-70
2023/03/03 09:18:35;;;;;;;17.77;9.27;;;;;;;2.24;100.00;102615.97;10369197;28;20115;-69
2023/03/03 09:23:51;;;;;;;15.45;9.43;;;;;;;2.50;100.00;102586.94;10390579;28;20052;-69
2023/03/03 09:28:54;;;;;;;16.73;9.60;;;;;;;2.92;100.00;102616.13;10391310;28;20029;-70
2023/03/03 09:33:56;;;;;;;15.63;8.90;;;;;;;2.86;100.00;102586.84;10389330;28;20039;-71
2023/03/03 09:38:57;;;;;;;13.60;8.70;;;;;;;3.03;100.00;102591.34;10388653;28;20046;-69
2023/03/03 09:44:29;;;;;;;12.63;8.00;;;;;;;2.95;100.00;102596.72;10364595;28;20445;-71
2023/03/03 09:49:34;;;;;;;10.70;8.23;;;;;;;2.67;100.00;102590.63;10381647;28;20046;-70
2023/03/03 09:54:40;;;;;;;14.68;8.38;;;;;;;2.87;100.00;102609.44;10411981;28;20060;-70
2023/03/03 09:59:54;;;;;;;20.42;10.13;;;;;;;3.01;100.00;102606.97;10406889;28;20038;-70
2023/03/03 10:05:16;;;;;;;26.17;10.18;;;;;;;2.91;100.00;102581.75;10353450;28;20092;-70
2023/03/03 10:10:41;;;;;;;28.40;11.07;;;;;;;3.31;100.00;102604.75;10349644;28;20498;-70
2023/03/03 10:16:00;;;;;;;17.60;9.13;;;;;;;3.64;100.00;102607.59;10384822;28;20056;-70
2023/03/03 10:21:09;;;;;;;22.08;9.70;;;;;;;4.04;100.00;102584.16;10398068;28;20093;-70
2023/03/03 10:26:15;;;;;;;20.35;9.52;;;;;;;4.32;100.00;102600.16;10409239;28;20037;-70
2023/03/03 10:31:44;;;;;;;15.30;7.20;;;;;;;4.57;100.00;102606.50;10410009;28;20057;-70
2023/03/03 10:36:47;;;;;;;16.52;7.57;;;;;;;4.73;100.00;102594.69;10408958;28;20060;-70
2023/03/03 10:41:54;;;;;;;15.38;6.80;;;;;;;5.09;100.00;102602.47;10408851;28;20040;-70
2023/03/03 10:47:19;;;;;;;13.07;6.28;;;;;;;5.27;100.00;102597.59;10408493;28;20041;-70
2023/03/03 10:52:32;;;;;;;7.18;4.65;;;;;;;5.70;100.00;102584.41;10409892;28;20058;-69
2023/03/03 10:57:51;;;;;;;7.13;4.50;;;;;;;6.07;100.00;102570.00;10376209;28;20041;-69
2023/03/03 11:03:06;;;;;;;6.93;4.22;;;;;;;6.59;100.00;102584.75;10367857;28;20046;-70
2023/03/03 11:08:12;;;;;;;6.82;3.40;;;;;;;6.57;100.00;102584.09;10368156;28;20042;-70
2023/03/03 11:13:18;;;;;;;8.93;3.83;;;;;;;6.84;100.00;102579.03;10399064;28;20136;-70
2023/03/03 11:19:10;;;;;;;10.25;4.35;;;;;;;6.70;100.00;102578.00;10399947;28;20132;-70
2023/03/03 11:24:35;;;;;;;9.13;4.03;;;;;;;7.31;100.00;102572.31;10363107;28;20052;-69
2023/03/03 11:30:09;;;;;;;5.20;3.00;;;;;;;7.51;100.00;102563.50;10414325;28;20046;-71
2023/03/03 11:36:06;;;;;;;6.57;2.50;;;;;;;7.45;100.00;102565.13;10398283;28;20049;-71
2023/03/03 11:41:14;;;;;;;7.35;3.28;;;;;;;7.41;100.00;102564.66;10313463;28;20050;-76
2023/03/03 11:46:16;;;;;;;5.57;2.38;;;;;;;6.93;100.00;102552.44;10369371;28;20051;-75
2023/03/03 11:51:23;;;;;;;6.63;2.70;;;;;;;6.91;100.00;102557.25;10348322;28;20052;-78
2023/03/03 11:56:40;;;;;;;4.05;2.42;;;;;;;6.85;100.00;102553.38;10355961;28;20076;-76
2023/03/03 12:02:09;;;;;;;4.85;2.38;;;;;;;7.00;100.00;102535.03;10359030;28;20065;-80
2023/03/03 12:07:15;;;;;;;5.72;2.22;;;;;;;6.78;100.00;102519.56;10342718;28;20092;-79
2023/03/03 12:12:20;;;;;;;3.55;2.55;;;;;;;6.93;100.00;102544.22;10370403;28;20048;-79
2023/03/03 12:17:58;;;;;;;5.80;2.78;;;;;;;6.85;100.00;102536.94;10371621;28;20101;-78
2023/03/03 12:23:37;;;;;;;3.42;1.80;;;;;;;6.88;100.00;102525.59;10397290;28;20087;-78
2023/03/03 12:28:49;;;;;;;4.40;1.50;;;;;;;6.77;100.00;102512.41;10395656;28;20038;-78
2023/03/03 12:34:18;;;;;;;1.90;1.40;;;;;;;5.97;100.00;102344.38;10375769;28;20057;-78
2023/03/03 12:39:50;;;;;;;4.38;1.00;;;;;;;7.29;100.00;102494.94;10343826;28;20045;-78
2023/03/03 12:45:04;;;;;;;4.00;0.90;;;;;;;8.21;100.00;102471.38;10388801;28;20055;-78
2023/03/03 12:50:36;;;;;;;4.13;0.90;;;;;;;8.54;100.00;102498.22;10377731;28;20048;-78
2023/03/03 12:55:51;;;;;;;1.13;0.60;;;;;;;8.12;100.00;102478.91;10410086;28;20053;-77
2023/03/03 13:01:14;;;;;;;1.27;0.60;;;;;;;8.31;100.00;102466.41;10382405;28;20038;-77
2023/03/03 13:06:58;;;;;;;1.33;0.60;;;;;;;8.76;100.00;102466.91;10352035;28;20561;-69
2023/03/03 13:12:19;;;;;;;1.20;0.63;;;;;;;8.25;100.00;102468.03;10357376;28;20034;-78
2023/03/03 13:17:29;;;;;;;3.13;0.80;;;;;;;9.54;100.00;102449.22;10392333;28;20056;-77
2023/03/03 13:22:32;;;;;;;2.67;0.50;;;;;;;11.08;100.00;102429.50;10343226;28;20521;-77
2023/03/03 13:27:40;;;;;;;6.05;0.60;;;;;;;10.30;100.00;102438.66;10374516;28;20038;-77
2023/03/03 13:32:49;;;;;;;7.43;1.67;;;;;;;9.70;100.00;102422.16;10352957;28;20041;-76
2023/03/03 13:37:52;;;;;;;4.13;0.88;;;;;;;10.43;100.00;102404.75;10412655;28;20051;-79
2023/03/03 13:43:03;;;;;;;2.90;0.70;;;;;;;10.57;100.00;102401.97;10394587;28;20096;-77
2023/03/03 13:48:23;;;;;;;4.47;0.95;;;;;;;10.65;100.00;102407.25;10395132;28;20457;-76
2023/03/03 13:53:30;;;;;;;4.03;0.93;;;;;;;9.28;100.00;102415.97;10352960;28;20118;-76
2023/03/03 13:58:38;;;;;;;5.57;1.52;;;;;;;9.11;100.00;102413.81;10373800;28;20103;-76
2023/03/03 14:03:57;;;;;;;10.13;1.00;;;;;;;8.45;100.00;102417.94;10369040;28;20526;-75
2023/03/03 14:08:59;;;;;;;9.65;1.45;;;;;;;8.10;100.00;102426.13;10371349;28;20050;-75
2023/03/03 14:14:17;;;;;;;6.20;1.92;;;;;;;8.39;100.00;102415.97;10408024;28;20397;-73
2023/03/03 14:19:34;;;;;;;8.88;1.30;;;;;;;10.05;100.00;102368.81;10405609;28;20051;-75
2023/03/03 14:24:56;;;;;;;10.23;1.77;;;;;;;9.41;100.00;102384.06;10393497;28;20029;-73
2023/03/03 14:29:56;;;;;;;20.88;2.92;;;;;;;8.44;100.00;102388.81;10409511;28;20044;-73
2023/03/03 14:34:58;;;;;;;20.88;2.78;;;;;;;7.80;100.00;102398.06;10392976;28;20044;-73
2023/03/03 14:40:09;;;;;;;16.80;2.95;;;;;;;7.60;100.00;102411.59;10393842;28;20033;-73
2023/03/03 14:45:32;;;;;;;17.38;2.95;;;;;;;7.32;100.00;102390.47;10370411;28;20053;-73
2023/03/03 14:50:35;;;;;;;18.70;3.20;;;;;;;7.05;100.00;102392.94;10378858;28;20085;-73
2023/03/03 14:55:36;;;;;;;19.05;3.35;;;;;;;7.01;100.00;102394.34;10367293;28;20129;-73
2023/03/03 15:00:37;;;;;;;20.05;3.47;;;;;;;6.77;100.00;102406.50;10352374;28;20054;-74
2023/03/03 15:05:37;;;;;;;13.15;2.70;;;;;;;6.74;100.00;102406.00;10386404;28;20067;-74
2023/03/03 15:10:43;;;;;;;12.93;3.50;;;;;;;6.73;100.00;102398.84;10387790;28;20107;-73
2023/03/03 15:15:58;;;;;;;15.52;2.50;;;;;;;6.49;100.00;102406.34;10373400;28;20564;-74
2023/03/03 15:21:08;;;;;;;30.02;4.40;;;;;;;6.29;100.00;102405.22;10427243;28;20048;-74
2023/03/03 15:26:25;;;;;;;17.02;2.67;;;;;;;6.29;100.00;102397.00;10398934;28;20392;-76
2023/03/03 15:31:57;;;;;;;17.05;3.65;;;;;;;6.15;100.00;102399.53;10416356;28;20049;-76
2023/03/03 15:37:03;;;;;;;18.90;3.33;;;;;;;5.99;100.00;102383.31;10414032;28;20045;-76
2023/03/03 15:42:13;;;;;;;15.00;2.38;;;;;;;6.00;100.00;102376.81;10417229;28;20033;-76
2023/03/03 15:47:38;;;;;;;15.15;2.95;;;;;;;5.99;100.00;102377.84;10397087;28;20490;-75
2023/03/03 15:53:17;;;;;;;17.15;4.90;;;;;;;5.99;100.00;102373.22;10412649;28;20049;-76
2023/03/03 15:58:32;;;;;;;24.42;3.70;;;;;;;5.93;100.00;102367.63;10359968;28;20045;-75
2023/03/03 16:03:45;;;;;;;13.38;2.97;;;;;;;5.89;100.00;102360.81;10412023;28;20132;-75
2023/03/03 16:09:01;;;;;;;28.17;4.53;;;;;;;5.83;100.00;102357.81;10414907;28;20048;-75
2023/03/03 16:14:32;;;;;;;14.05;2.25;;;;;;;5.93;100.00;102376.66;10414821;28;20462;-75
2023/03/03 16:19:50;;;;;;;20.20;3.53;;;;;;;5.89;100.00;102377.22;10355234;28;20053;-75
2023/03/03 16:24:53;;;;;;;16.70;2.75;;;;;;;5.79;100.00;102383.81;10356181;28;20034;-75
2023/03/03 16:30:12;;;;;;;20.45;5.65;;;;;;;5.82;100.00;102375.22;10372697;28;20038;-74
2023/03/03 16:35:16;;;;;;;24.45;4.90;;;;;;;5.88;100.00;102381.00;10414419;28;20444;-74
2023/03/03 16:40:22;;;;;;;24.38;4.72;;;;;;;5.62;100.00;102354.94;10387117;28;20046;-72
2023/03/03 16:45:27;;;;;;;13.65;2.38;;;;;;;5.79;100.00;102393.91;10410006;28;20053;-72
2023/03/03 16:50:38;;;;;;;22.92;4.43;;;;;;;5.72;100.00;102393.78;10396641;28;20041;-72
2023/03/03 16:55:55;;;;;;;21.42;3.17;;;;;;;5.71;100.00;102403.03;10413805;28;20178;-71
2023/03/03 17:01:04;;;;;;;18.35;3.97;;;;;;;5.68;100.00;102397.91;10397242;28;20037;-71
2023/03/03 17:06:17;;;;;;;17.90;3.72;;;;;;;5.56;100.00;102393.91;10413028;28;20045;-71
2023/03/03 17:11:27;;;;;;;17.52;3.20;;;;;;;5.58;100.00;102408.25;10380545;28;20041;-73
2023/03/03 17:16:33;;;;;;;28.13;6.30;;;;;;;5.53;100.00;102421.63;10431635;28;20044;-73
2023/03/03 17:21:55;;;;;;;18.13;5.80;;;;;;;5.45;100.00;102409.72;10399181;28;20041;-73
2023/03/03 17:27:34;;;;;;;23.33;3.78;;;;;;;5.44;100.00;102418.13;10453492;28;20057;-73
2023/03/03 17:32:56;;;;;;;17.08;3.10;;;;;;;5.43;100.00;102413.66;10392353;28;20037;-73
2023/03/03 17:38:30;;;;;;;16.13;4.60;;;;;;;5.38;100.00;102427.88;10434402;28;20040;-72
2023/03/03 17:43:38;;;;;;;29.48;4.40;;;;;;;5.35;100.00;102425.50;10419172;28;20043;-73
2023/03/03 17:48:44;;;;;;;26.05;4.05;;;;;;;5.33;100.00;102432.16;10393620;28;20033;-74
2023/03/03 17:54:15;;;;;;;20.67;3.40;;;;;;;5.31;100.00;102431.50;10449882;28;20107;-72
2023/03/03 17:59:20;;;;;;;28.05;6.05;;;;;;;5.28;100.00;102430.00;10451920;28;20044;-72
2023/03/03 18:04:23;;;;;;;20.25;3.83;;;;;;;5.24;100.00;102429.50;10393532;28;20042;-72
2023/03/03 18:09:52;;;;;;;26.50;4.45;;;;;;;5.18;100.00;102429.38;10410132;28;20037;-71
2023/03/03 18:15:17;;;;;;;28.67;5.47;;;;;;;5.25;100.00;102430.38;10392635;28;20042;-72
2023/03/03 18:20:31;;;;;;;23.45;4.57;;;;;;;5.26;100.00;102423.88;10449694;28;20033;-72
2023/03/03 18:26:21;;;;;;;17.92;3.10;;;;;;;5.25;100.00;102427.63;10434314;28;20040;-72
2023/03/03 18:31:27;;;;;;;26.30;3.55;;;;;;;5.13;100.00;102410.81;10445896;28;20041;-71
2023/03/03 18:36:28;;;;;;;;;;;;;;;5.23;100.00;102432.44;10417532;28;20061;-71
2023/03/03 18:41:33;;;;;;;25.83;6.13;;;;;;;5.18;100.00;102440.31;10411486;28;20407;-71
2023/03/03 18:46:43;;;;;;;22.45;4.10;;;;;;;5.15;100.00;102429.75;10432234;28;20781;-72
2023/03/03 18:51:44;;;;;;;18.52;4.20;;;;;;;5.11;100.00;102431.16;10432918;28;20041;-72
2023/03/03 18:56:45;;;;;;;19.85;4.57;;;;;;;5.10;100.00;102435.72;10423021;28;20045;-71
2023/03/03 19:01:47;;;;;;;22.65;4.40;;;;;;;5.09;100.00;102430.47;10449841;28;20041;-72
2023/03/03 19:06:47;;;;;;;21.63;3.67;;;;;;;5.12;100.00;102435.56;10416731;28;20056;-71
2023/03/03 19:11:48;;;;;;;22.95;4.05;;;;;;;5.08;100.00;102429.59;10450747;28;20029;-72
2023/03/03 19:16:51;;;;;;;28.55;4.50;;;;;;;5.04;100.00;102423.66;10430454;28;20044;-72
2023/03/03 19:22:19;;;;;;;19.38;3.90;;;;;;;5.09;100.00;102431.31;10415861;28;20047;-71
2023/03/03 19:27:23;;;;;;;22.58;5.43;;;;;;;5.10;100.00;102430.28;10425044;28;20101;-73
2023/03/03 19:32:44;;;;;;;33.88;6.63;;;;;;;5.09;100.00;102436.78;10392505;28;20034;-72
2023/03/03 19:38:12;;;;;;;13.52;3.38;;;;;;;5.01;100.00;102440.38;10398133;28;20051;-72
2023/03/03 19:43:15;;;;;;;29.33;5.97;;;;;;;5.00;100.00;102449.63;10452050;28;20060;-72
2023/03/03 19:48:37;;;;;;;24.52;4.35;;;;;;;5.01;100.00;102442.28;10440016;28;20063;-72
2023/03/03 19:53:59;;;;;;;26.08;4.63;;;;;;;4.99;100.00;102449.78;10445332;28;20121;-72
2023/03/03 19:59:28;;;;;;;17.40;4.07;;;;;;;4.67;100.00;102393.50;10414245;28;20026;-72
2023/03/03 20:04:36;;;;;;;29.25;4.85;;;;;;;4.89;100.00;102438.25;10396518;28;20097;-72
2023/03/03 20:09:40;;;;;;;23.23;4.13;;;;;;;4.72;100.00;102419.22;10411922;28;20052;-72
2023/03/03 20:14:44;;;;;;;27.33;4.00;;;;;;;4.94;100.00;102463.97;10436021;28;20049;-72
2023/03/03 20:19:55;;;;;;;28.92;5.28;;;;;;;4.87;100.00;102462.97;10437092;28;20036;-71
2023/03/03 20:25:22;;;;;;;22.20;4.63;;;;;;;4.85;100.00;102462.31;10438584;28;20090;-71
2023/03/03 20:30:46;;;;;;;27.05;5.35;;;;;;;4.86;100.00;102458.56;10398207;28;20474;-72
2023/03/03 20:36:13;;;;;;;35.92;6.30;;;;;;;4.80;100.00;102464.72;10428153;28;20061;-71
2023/03/03 20:41:57;;;;;;;20.05;4.82;;;;;;;4.87;100.00;102476.63;10372613;28;20137;-71
2023/03/03 20:47:19;;;;;;;24.17;4.95;;;;;;;4.79;100.00;102463.00;10354864;28;20050;-73
2023/03/03 20:52:29;;;;;;;23.48;4.45;;;;;;;4.90;100.00;102479.00;10373223;28;20048;-72
2023/03/03 20:57:39;;;;;;;20.05;4.45;;;;;;;4.89;100.00;102473.72;10368615;28;20042;-72
2023/03/03 21:03:17;;;;;;;24.00;3.47;;;;;;;4.89;100.00;102485.47;10379066;28;20053;-71
2023/03/03 21:08:17;;;;;;;19.50;4.63;;;;;;;4.90;100.00;102484.47;10372408;28;20610;-73
2023/03/03 21:13:28;;;;;;;15.10;3.90;;;;;;;4.89;100.00;102490.94;10374373;28;20041;-71
2023/03/03 21:18:28;;;;;;;18.65;7.15;;;;;;;4.77;100.00;102443.25;10375113;28;20049;-71
2023/03/03 21:23:29;;;;;;;17.65;4.47;;;;;;;4.79;100.00;102458.41;10374387;28;20064;-71
2023/03/03 21:28:31;;;;;;;25.00;4.25;;;;;;;4.84;100.00;102456.00;10372240;28;20064;-71
2023/03/03 21:33:37;;;;;;;17.80;3.38;;;;;;;4.92;100.00;102468.78;10356597;28;20418;-72
2023/03/03 21:38:38;;;;;;;26.92;5.38;;;;;;;4.91;100.00;102472.50;10399587;28;20041;-72
2023/03/03 21:43:43;;;;;;;16.40;2.83;;;;;;;4.89;100.00;102463.66;10404775;28;20044;-72
2023/03/03 21:48:45;;;;;;;20.38;4.15;;;;;;;4.93;100.00;102470.44;10398800;28;20105;-72
2023/03/03 21:53:46;;;;;;;16.98;3.03;;;;;;;4.94;100.00;102474.91;10376021;28;20112;-72
2023/03/03 21:58:47;;;;;;;18.23;3.83;;;;;;;4.97;100.00;102471.81;10359051;28;20128;-72
2023/03/03 22:03:47;;;;;;;20.58;3.47;;;;;;;4.38;100.00;102367.69;10391949;28;20029;-72
2023/03/03 22:08:47;;;;;;;16.38;3.00;;;;;;;4.91;100.00;102453.41;10407916;28;20033;-72
2023/03/03 22:13:48;;;;;;;16.00;3.35;;;;;;;4.99;100.00;102472.47;10404107;28;20451;-71
2023/03/03 22:18:48;;;;;;;14.48;3.42;;;;;;;4.96;100.00;102463.78;10398767;28;20041;-72
2023/03/03 22:23:49;;;;;;;13.10;3.05;;;;;;;5.01;100.00;102462.22;10389347;28;20076;-71
2023/03/03 22:28:49;;;;;;;12.05;2.80;;;;;;;4.93;100.00;102445.88;10376331;28;20033;-72
2023/03/03 22:33:50;;;;;;;14.63;3.30;;;;;;;5.01;100.00;102462.22;10446091;28;20029;-72
2023/03/03 22:38:50;;;;;;;12.00;2.40;;;;;;;5.00;100.00;102460.53;10448171;28;20044;-71
2023/03/03 22:43:51;;;;;;;19.65;3.88;;;;;;;4.99;100.00;102449.78;10415534;28;20033;-73
2023/03/03 22:48:51;;;;;;;15.35;2.63;;;;;;;4.98;100.00;102445.34;10442887;28;20064;-72
2023/03/03 22:53:52;;;;;;;13.65;2.83;;;;;;;5.01;100.00;102439.56;10403980;28;20029;-72
2023/03/03 22:58:52;;;;;;;14.30;2.58;;;;;;;4.96;100.00;102442.81;10450279;28;20033;-72
2023/03/03 23:03:53;;;;;;;20.17;2.95;;;;;;;4.97;100.00;102441.78;10431933;28;20052;-72
2023/03/03 23:08:53;;;;;;;15.73;2.63;;;;;;;4.95;100.00;102430.19;10433852;28;20068;-72
2023/03/03 23:13:54;;;;;;;16.42;3.20;;;;;;;4.98;100.00;102445.34;10440957;28;20455;-72
2023/03/03 23:18:54;;;;;;;11.70;3.10;;;;;;;4.90;100.00;102426.28;10439770;28;20033;-71